createdAt,value
2019-05-22T00:02:16.438Z,99603.04
2019-05-22T00:07:18.273Z,99607.75
2019-05-22T00:12:20.220Z,99622.80
2019-05-22T00:17:26.344Z,99626.37
2019-05-22T00:22:32.757Z,99614.94
2019-05-22T00:27:36.311Z,99618.11
2019-05-22T00:32:38.767Z,99611.08
2019-05-22T00:37:41.692Z,99613.60
2019-05-22T00:42:44.885Z,99613.73
2019-05-22T00:47:48.640Z,99615.76
2019-05-22T00:53:00.133Z,99619.89
2019-05-22T00:58:05.477Z,99616.88
2019-05-22T01:03:09.135Z,99622.70
2019-05-22T01:08:15.067Z,99623.69
2019-05-22T01:13:17.523Z,99641.48
2019-05-22T01:18:19.581Z,99642.88
2019-05-22T01:23:23.128Z,99637.14
2019-05-22T01:28:25.383Z,99630.14
2019-05-22T01:33:33.062Z,99631.91
2019-05-22T01:38:35.161Z,99637.38
2019-05-22T01:43:37.367Z,99638.78
2019-05-22T01:48:41.822Z,99640.20
2019-05-22T01:53:43.454Z,99649.82
2019-05-22T01:58:45.140Z,99647.91
2019-05-22T02:03:47.209Z,99644.80
2019-05-22T02:08:56.165Z,99647.90
2019-05-22T02:14:09.407Z,99648.21
2019-05-22T02:19:10.950Z,99650.48
2019-05-22T02:24:12.715Z,99652.60
2019-05-22T02:29:16.397Z,99653.50
2019-05-22T02:34:18.095Z,99648.48
2019-05-22T02:39:23.336Z,99657.81
2019-05-22T02:44:26.460Z,99663.16
2019-05-22T02:49:28.353Z,99661.93
2019-05-22T02:54:31.977Z,99669.86
2019-05-22T02:59:33.762Z,99680.30
2019-05-22T03:05:08.300Z,99685.05
2019-05-22T03:10:13.654Z,99677.98
2019-05-22T03:15:17.335Z,99672.69
2019-05-22T03:20:21.147Z,99687.95
2019-05-22T03:25:24.238Z,99691.77
2019-05-22T03:30:29.594Z,99698.70
2019-05-22T03:35:38.677Z,99691.23
2019-05-22T03:40:40.915Z,99711.28
2019-05-22T03:45:42.668Z,99718.80
2019-05-22T03:50:44.322Z,99724.53
2019-05-22T03:55:46.982Z,99737.16
2019-05-22T04:00:49.980Z,99741.37
2019-05-22T04:05:51.941Z,99737.02
2019-05-22T04:10:56.409Z,99750.34
2019-05-22T04:16:00.073Z,99741.98
2019-05-22T04:21:02.011Z,99756.83
2019-05-22T04:26:04.415Z,99760.35
2019-05-22T04:31:06.664Z,99767.64
2019-05-22T04:36:10.282Z,99757.39
2019-05-22T04:41:13.868Z,99761.84
2019-05-22T04:46:16.880Z,99766.95
2019-05-22T04:51:21.909Z,99767.64
2019-05-22T04:56:24.597Z,99775.61
2019-05-22T05:01:27.085Z,99781.25
2019-05-22T05:06:30.497Z,99787.69
2019-05-22T05:11:32.150Z,99789.93
2019-05-22T05:16:36.403Z,99792.45
2019-05-22T05:21:38.300Z,99794.33
2019-05-22T05:26:40.548Z,99793.49
2019-05-22T05:31:42.212Z,99788.86
2019-05-22T05:36:44.126Z,99796.61
2019-05-22T05:41:45.660Z,99802.25
2019-05-22T05:46:48.129Z,99812.81
2019-05-22T05:51:50.993Z,99818.13
2019-05-22T05:56:52.930Z,99821.45
2019-05-22T06:01:55.387Z,99821.09
2019-05-22T06:07:17.576Z,99824.61
2019-05-22T06:12:19.234Z,99832.85
2019-05-22T06:18:13.593Z,99829.25
2019-05-22T06:23:57.570Z,99841.09
2019-05-22T06:28:59.628Z,99840.42
2019-05-22T06:34:01.209Z,99860.22
2019-05-22T06:39:15.530Z,99855.09
2019-05-22T06:44:27.759Z,99864.02
2019-05-22T06:49:38.358Z,99877.86
2019-05-22T06:54:40.252Z,99891.27
2019-05-22T06:59:44.185Z,99878.77
2019-05-22T07:04:46.480Z,99888.56
2019-05-22T07:09:49.077Z,99889.24
2019-05-22T07:16:04.353Z,99894.39
2019-05-22T07:21:07.436Z,99899.58
2019-05-22T07:26:09.913Z,99905.27
2019-05-22T07:31:11.958Z,99916.34
2019-05-22T07:36:17.017Z,99909.19
2019-05-22T07:41:18.054Z,99911.94
2019-05-22T07:46:20.083Z,99915.31
2019-05-22T07:51:22.154Z,99904.41
2019-05-22T07:56:24.408Z,99908.91
2019-05-22T08:01:26.198Z,99911.70
2019-05-22T08:06:27.964Z,99909.59
2019-05-22T08:11:29.602Z,99917.63
2019-05-22T08:16:31.449Z,99920.75
2019-05-22T08:21:33.304Z,99933.45
2019-05-22T08:26:51.642Z,99927.09
2019-05-22T08:31:38.630Z,99935.65
2019-05-22T08:36:40.221Z,99947.31
2019-05-22T08:41:42.008Z,99958.66
2019-05-22T08:46:44.137Z,99944.88
2019-05-22T08:51:46.376Z,99958.01
2019-05-22T08:56:48.880Z,99962.65
2019-05-22T09:01:51.640Z,99970.51
2019-05-22T09:06:53.321Z,99981.94
2019-05-22T09:11:55.399Z,99967.25
2019-05-22T09:16:56.993Z,99986.71
2019-05-22T09:21:59.041Z,99991.67
2019-05-22T09:27:02.834Z,99981.56
2019-05-22T09:32:05.239Z,99992.18
2019-05-22T09:37:08.177Z,99993.86
2019-05-22T09:42:09.869Z,99995.38
2019-05-22T09:47:11.570Z,100003.98
2019-05-22T09:52:13.241Z,100010.67
2019-05-22T09:57:15.365Z,100014.93
2019-05-22T10:02:16.914Z,100033.00
2019-05-22T10:07:18.597Z,100027.02
2019-05-22T10:12:20.382Z,100025.50
2019-05-22T10:17:22.635Z,100031.81
2019-05-22T10:22:28.962Z,100052.28
2019-05-22T10:27:30.834Z,100039.84
2019-05-22T10:32:32.714Z,100040.29
2019-05-22T10:37:34.474Z,100063.87
2019-05-22T10:42:36.165Z,100052.42
2019-05-22T10:47:38.274Z,100055.47
2019-05-22T10:52:39.824Z,100058.13
2019-05-22T10:57:43.025Z,100055.79
2019-05-22T11:02:45.702Z,100048.25
2019-05-22T11:07:47.754Z,100051.23
2019-05-22T11:12:49.846Z,100063.63
2019-05-22T11:17:51.558Z,100068.25
2019-05-22T11:22:53.472Z,100058.85
2019-05-22T11:27:55.130Z,100057.63
2019-05-22T11:32:57.095Z,100076.41
2019-05-22T11:37:59.081Z,100079.54
2019-05-22T11:43:00.975Z,100083.22
2019-05-22T11:48:03.800Z,100079.05
2019-05-22T11:53:05.897Z,100077.48
2019-05-22T11:58:07.748Z,100079.00
2019-05-22T12:03:09.622Z,100086.79
2019-05-22T12:08:12.197Z,100080.95
2019-05-22T12:13:13.871Z,100097.02
2019-05-22T12:18:15.548Z,100101.07
2019-05-22T12:23:17.235Z,100105.66
2019-05-22T12:28:19.105Z,100113.50
2019-05-22T12:33:21.608Z,100119.06
2019-05-22T12:38:26.697Z,100121.84
2019-05-22T12:43:29.365Z,100126.50
2019-05-22T12:48:31.242Z,100117.77
2019-05-22T12:53:33.592Z,100120.79
2019-05-22T12:58:36.012Z,100128.20
2019-05-22T13:03:38.122Z,100137.72
2019-05-22T13:08:40.366Z,100133.30
2019-05-22T13:13:42.720Z,100138.15
2019-05-22T13:18:44.427Z,100136.50
2019-05-22T13:23:47.736Z,100133.08
2019-05-22T13:28:49.328Z,100136.27
2019-05-22T13:33:52.296Z,100144.84
2019-05-22T13:38:54.387Z,100140.62
2019-05-22T13:43:56.710Z,100155.53
2019-05-22T13:48:58.361Z,100148.41
2019-05-22T13:53:59.901Z,100167.78
2019-05-22T13:59:02.170Z,100164.58
2019-05-22T14:04:03.875Z,100173.83
2019-05-22T14:09:09.066Z,100176.20
2019-05-22T14:14:11.331Z,100180.70
2019-05-22T14:19:12.879Z,100183.34
2019-05-22T14:24:14.531Z,100171.50
2019-05-22T14:29:16.276Z,100176.70
2019-05-22T14:34:17.901Z,100179.31
2019-05-22T14:39:20.532Z,100173.44
2019-05-22T14:44:22.184Z,100181.36
2019-05-22T14:49:23.856Z,100186.42
2019-05-22T14:54:25.512Z,100188.42
2019-05-22T14:59:27.395Z,100194.05
2019-05-22T15:04:29.542Z,100201.96
2019-05-22T15:09:31.389Z,100197.06
2019-05-22T15:14:33.032Z,100197.08
2019-05-22T15:19:35.318Z,100189.76
2019-05-22T15:24:37.443Z,100190.52
2019-05-22T15:29:39.528Z,100192.56
2019-05-22T15:34:41.180Z,100206.91
2019-05-22T15:39:42.734Z,100202.97
2019-05-22T15:44:44.904Z,100215.54
2019-05-22T15:49:47.114Z,100209.67
2019-05-22T15:54:49.765Z,100214.44
2019-05-22T15:59:51.888Z,100215.38
2019-05-22T16:04:53.643Z,100217.00
2019-05-22T16:09:55.890Z,100217.46
2019-05-22T16:14:59.400Z,100210.14
2019-05-22T16:20:01.566Z,100217.22
2019-05-22T16:25:03.908Z,100206.95
2019-05-22T16:30:06.796Z,100208.16
2019-05-22T16:35:09.577Z,100221.92
2019-05-22T16:40:12.203Z,100224.45
2019-05-22T16:45:14.262Z,100223.50
2019-05-22T16:50:16.106Z,100224.94
2019-05-22T16:55:19.779Z,100223.36
2019-05-22T17:00:21.630Z,100227.84
2019-05-22T17:05:23.806Z,100232.39
2019-05-22T17:10:26.058Z,100235.42
2019-05-22T17:15:28.113Z,100241.05
2019-05-22T17:20:29.796Z,100242.53
2019-05-22T17:25:32.317Z,100236.46
2019-05-22T17:30:34.396Z,100242.80
2019-05-22T17:35:36.857Z,100246.61
2019-05-22T17:40:39.081Z,100244.36
2019-05-22T17:45:42.097Z,100245.02
2019-05-22T17:50:44.353Z,100244.57
2019-05-22T17:55:46.870Z,100238.50
2019-05-22T18:00:49.001Z,100243.80
2019-05-22T18:05:51.262Z,100252.56
2019-05-22T18:10:53.115Z,100249.27
2019-05-22T18:15:54.689Z,100252.91
2019-05-22T18:20:56.343Z,100260.83
2019-05-22T18:25:57.918Z,100266.62
2019-05-22T18:30:59.683Z,100266.29
2019-05-22T18:36:01.283Z,100278.08
2019-05-22T18:41:03.069Z,100276.99
2019-05-22T18:46:05.144Z,100288.03
2019-05-22T18:51:07.855Z,100295.38
2019-05-22T18:56:10.894Z,100299.97
2019-05-22T19:01:16.189Z,100302.34
2019-05-22T19:06:29.389Z,100306.04
2019-05-22T19:11:20.363Z,100315.47
2019-05-22T19:16:22.826Z,100319.95
2019-05-22T19:21:24.370Z,100322.44
2019-05-22T19:26:27.032Z,100324.27
2019-05-22T19:31:28.776Z,100325.11
2019-05-22T19:36:30.431Z,100326.91
2019-05-22T19:41:32.124Z,100337.64
2019-05-22T19:46:33.779Z,100331.20
2019-05-22T19:51:36.644Z,100336.66
2019-05-22T19:56:38.840Z,100336.66
2019-05-22T20:01:40.922Z,100342.59
2019-05-22T20:06:42.783Z,100337.49
2019-05-22T20:11:44.944Z,100345.73
2019-05-22T20:16:46.908Z,100345.41
2019-05-22T20:21:49.694Z,100348.19
2019-05-22T20:26:51.356Z,100347.53
2019-05-22T20:31:53.125Z,100342.61
2019-05-22T20:36:55.892Z,100341.77
2019-05-22T20:41:57.485Z,100337.48
2019-05-22T20:46:59.490Z,100334.69
2019-05-22T20:52:01.086Z,100337.84
2019-05-22T20:57:04.701Z,100336.66
2019-05-22T21:02:08.281Z,100345.09
2019-05-22T21:07:10.671Z,100343.77
2019-05-22T21:12:12.749Z,100348.71
2019-05-22T21:17:15.159Z,100348.34
2019-05-22T21:22:20.364Z,100351.16
2019-05-22T21:27:22.028Z,100359.73
2019-05-22T21:32:24.233Z,100361.05
2019-05-22T21:37:25.893Z,100359.72
2019-05-22T21:42:28.277Z,100365.65
2019-05-22T21:47:30.067Z,100369.12
2019-05-22T21:52:32.321Z,100372.89
2019-05-22T21:57:35.061Z,100380.45
2019-05-22T22:02:41.690Z,100381.62
2019-05-22T22:07:43.449Z,100381.92
2019-05-22T22:12:47.458Z,100392.13
2019-05-22T22:17:51.500Z,100385.70
2019-05-22T22:22:53.692Z,100387.17
2019-05-22T22:27:55.362Z,100397.85
2019-05-22T22:32:58.043Z,100392.06
2019-05-22T22:38:00.004Z,100392.06
2019-05-22T22:43:02.837Z,100399.78
2019-05-22T22:48:05.559Z,100394.32
2019-05-22T22:53:07.317Z,100394.44
2019-05-22T22:58:17.041Z,100391.48
2019-05-22T23:03:18.862Z,100395.73
2019-05-22T23:08:24.116Z,100394.22
2019-05-22T23:13:27.289Z,100407.39
2019-05-22T23:18:51.997Z,100403.58
2019-05-22T23:23:52.883Z,100412.45
2019-05-22T23:28:54.875Z,100419.72
2019-05-22T23:33:56.413Z,100425.62
2019-05-22T23:39:00.602Z,100427.08
2019-05-22T23:44:02.412Z,100425.25
2019-05-22T23:49:04.040Z,100433.80
2019-05-22T23:54:05.619Z,100431.33
2019-05-22T23:59:07.571Z,100427.35
